Portada
METAR-TAF:

METAR-TAF

Aeropuertos :

Pionyang, Corea del Norte

Aeropuerto Internacional de Sunan

latitud: 39-02N, longitud: 125-47E, altitud: 36 m

METAR: falta

Hora: 12:42 (04:12 UTC)

Pronóstico

El informe se hizo hace 7 horas y 2 minutos, a las 21:10 UTC
Pronóstico válido del 25 a las 00 UTC al 25 a las 24 UTC
Viento 8 kt del sur-sureste
Visibilidad: 4000 m
Cielo despejado
neblina
Evolucionando progresivamente
del 25 a las 03 UTC al 25 a las 05 UTC
Visibilidad 10 km o más
sin nubes por debajo de 1500 m y sin presencia de cumulonimbus.
Evolucionando progresivamente
del 25 a las 10 UTC al 25 a las 12 UTC
Viento 8 kt del sur
Visibilidad: 6000 m
Cielo nuboso a una altura de 3000 ft

TAF: ZKPY 242110Z 2500/2524 15004MPS 4000 BR SKC BECMG 2503/2505 CAVOK BECMG 2510/2512 19004MPS 6000 BKN030

Observaciones y pronósticos meteorológicos de más de 4000 aeropuertos (mensajes METAR y TAF).

Los puntos amarillos y rojos representan las estaciones disponibles.

Ponga el ratón en el punto deseado para ver el nombre de la estación.

Haga clic para ver las observaciones y los pronósticos meteorológicos.

Para cambiar el mapa : haga clic en los botones verdes con una cruz de color negro para hacer un zoom, en el botón verde con un guión para alejar o en las flechas verdes para mapas adyacentes.


METAR-TAF: